Terminal Aerodrome Forecast
Issued by NWS

Home | Current Version | Previous Version | Text Only | Print | Product List | Glossary On
Versions: 1 2 3 4 5 6 7 8 9 10 11 12
000
FTUS46 KSGX 061134
TAFONT
TAF
KONT 061134Z 0612/0718 04005KT P6SM SKC WS020/09025KT
     FM061800 04015G30KT P6SM SKC
     FM062300 04010G18KT P6SM SKC
     FM070400 04008KT P6SM SKC=

USA.gov is the U.S. government's official web portal to all federal, state and local government web resources and services.